sensor_id;sensor_type;location;lat;lon;timestamp;P1;durP1;ratioP1;P2;durP2;ratioP2
18084;SDS011;9169;44.492;11.372;2023-05-23T00:01:43;31.70;;;11.70;;
18084;SDS011;9169;44.492;11.372;2023-05-23T00:04:12;33.30;;;12.20;;
18084;SDS011;9169;44.492;11.372;2023-05-23T00:06:44;33.30;;;11.67;;
18084;SDS011;9169;44.492;11.372;2023-05-23T00:09:13;32.50;;;11.53;;
18084;SDS011;9169;44.492;11.372;2023-05-23T00:11:41;36.10;;;12.00;;
18084;SDS011;9169;44.492;11.372;2023-05-23T00:14:10;33.67;;;11.47;;
18084;SDS011;9169;44.492;11.372;2023-05-23T00:16:40;30.83;;;11.07;;
18084;SDS011;9169;44.492;11.372;2023-05-23T00:19:12;35.50;;;11.23;;
18084;SDS011;9169;44.492;11.372;2023-05-23T00:21:42;33.40;;;12.03;;
18084;SDS011;9169;44.492;11.372;2023-05-23T00:24:15;32.43;;;11.30;;
18084;SDS011;9169;44.492;11.372;2023-05-23T00:26:44;32.50;;;10.73;;
18084;SDS011;9169;44.492;11.372;2023-05-23T00:29:13;34.33;;;10.17;;
18084;SDS011;9169;44.492;11.372;2023-05-23T00:31:44;36.43;;;10.40;;
18084;SDS011;9169;44.492;11.372;2023-05-23T00:34:13;34.53;;;10.20;;
18084;SDS011;9169;44.492;11.372;2023-05-23T00:36:43;34.40;;;11.23;;
18084;SDS011;9169;44.492;11.372;2023-05-23T00:39:13;32.60;;;10.10;;
18084;SDS011;9169;44.492;11.372;2023-05-23T00:41:47;32.30;;;10.30;;
18084;SDS011;9169;44.492;11.372;2023-05-23T00:44:18;34.77;;;10.73;;
18084;SDS011;9169;44.492;11.372;2023-05-23T00:46:50;32.33;;;10.80;;
18084;SDS011;9169;44.492;11.372;2023-05-23T00:49:22;32.97;;;10.80;;
18084;SDS011;9169;44.492;11.372;2023-05-23T00:51:53;32.70;;;11.17;;
18084;SDS011;9169;44.492;11.372;2023-05-23T00:54:23;33.00;;;10.73;;
18084;SDS011;9169;44.492;11.372;2023-05-23T00:56:54;33.57;;;10.00;;
18084;SDS011;9169;44.492;11.372;2023-05-23T00:59:23;36.53;;;10.93;;
18084;SDS011;9169;44.492;11.372;2023-05-23T01:01:54;32.10;;;10.30;;
18084;SDS011;9169;44.492;11.372;2023-05-23T01:04:24;32.33;;;10.10;;
18084;SDS011;9169;44.492;11.372;2023-05-23T01:06:54;34.00;;;10.67;;
18084;SDS011;9169;44.492;11.372;2023-05-23T01:09:24;31.67;;;10.47;;
18084;SDS011;9169;44.492;11.372;2023-05-23T01:11:57;35.60;;;10.50;;
18084;SDS011;9169;44.492;11.372;2023-05-23T01:14:37;33.10;;;10.67;;
18084;SDS011;9169;44.492;11.372;2023-05-23T01:17:16;38.00;;;11.23;;
18084;SDS011;9169;44.492;11.372;2023-05-23T01:19:53;37.17;;;11.10;;
18084;SDS011;9169;44.492;11.372;2023-05-23T01:25:27;33.30;;;11.00;;
18084;SDS011;9169;44.492;11.372;2023-05-23T01:28:14;33.00;;;10.57;;
18084;SDS011;9169;44.492;11.372;2023-05-23T01:30:47;36.67;;;10.17;;
18084;SDS011;9169;44.492;11.372;2023-05-23T01:33:18;33.30;;;11.20;;
18084;SDS011;9169;44.492;11.372;2023-05-23T01:35:49;34.57;;;10.40;;
18084;SDS011;9169;44.492;11.372;2023-05-23T01:38:18;34.10;;;10.07;;
18084;SDS011;9169;44.492;11.372;2023-05-23T01:40:46;38.30;;;11.47;;
18084;SDS011;9169;44.492;11.372;2023-05-23T01:43:16;35.63;;;10.27;;
18084;SDS011;9169;44.492;11.372;2023-05-23T01:45:45;33.80;;;10.43;;
18084;SDS011;9169;44.492;11.372;2023-05-23T01:48:14;34.30;;;10.83;;
18084;SDS011;9169;44.492;11.372;2023-05-23T01:50:44;32.07;;;10.40;;
18084;SDS011;9169;44.492;11.372;2023-05-23T01:53:14;39.00;;;10.60;;
18084;SDS011;9169;44.492;11.372;2023-05-23T01:55:44;34.07;;;10.70;;
18084;SDS011;9169;44.492;11.372;2023-05-23T01:58:13;33.53;;;10.80;;
18084;SDS011;9169;44.492;11.372;2023-05-23T02:00:43;36.23;;;11.60;;
18084;SDS011;9169;44.492;11.372;2023-05-23T02:03:12;38.20;;;10.50;;
18084;SDS011;9169;44.492;11.372;2023-05-23T02:05:41;34.43;;;10.00;;
18084;SDS011;9169;44.492;11.372;2023-05-23T02:08:10;34.30;;;10.70;;
18084;SDS011;9169;44.492;11.372;2023-05-23T02:10:39;32.80;;;10.80;;
18084;SDS011;9169;44.492;11.372;2023-05-23T02:13:08;33.40;;;10.27;;
18084;SDS011;9169;44.492;11.372;2023-05-23T02:15:36;33.93;;;11.40;;
18084;SDS011;9169;44.492;11.372;2023-05-23T02:18:06;34.50;;;11.27;;
18084;SDS011;9169;44.492;11.372;2023-05-23T02:20:38;35.27;;;10.63;;
18084;SDS011;9169;44.492;11.372;2023-05-23T02:23:08;42.80;;;11.70;;
18084;SDS011;9169;44.492;11.372;2023-05-23T02:25:37;34.20;;;10.47;;
18084;SDS011;9169;44.492;11.372;2023-05-23T02:28:05;35.07;;;10.47;;
18084;SDS011;9169;44.492;11.372;2023-05-23T02:30:34;31.47;;;9.97;;
18084;SDS011;9169;44.492;11.372;2023-05-23T02:33:07;36.00;;;10.50;;
18084;SDS011;9169;44.492;11.372;2023-05-23T02:35:36;34.77;;;10.47;;
18084;SDS011;9169;44.492;11.372;2023-05-23T02:38:08;33.37;;;10.97;;
18084;SDS011;9169;44.492;11.372;2023-05-23T02:40:39;34.40;;;10.57;;
18084;SDS011;9169;44.492;11.372;2023-05-23T02:43:08;34.67;;;11.47;;
18084;SDS011;9169;44.492;11.372;2023-05-23T02:45:36;35.30;;;10.77;;
18084;SDS011;9169;44.492;11.372;2023-05-23T02:48:05;36.47;;;11.60;;
18084;SDS011;9169;44.492;11.372;2023-05-23T02:50:35;34.87;;;11.20;;
18084;SDS011;9169;44.492;11.372;2023-05-23T02:53:04;34.20;;;10.10;;
18084;SDS011;9169;44.492;11.372;2023-05-23T02:55:33;36.83;;;10.97;;
18084;SDS011;9169;44.492;11.372;2023-05-23T02:58:02;38.60;;;11.00;;
18084;SDS011;9169;44.492;11.372;2023-05-23T03:00:31;38.77;;;10.67;;
18084;SDS011;9169;44.492;11.372;2023-05-23T03:03:00;34.90;;;10.60;;
18084;SDS011;9169;44.492;11.372;2023-05-23T03:05:30;35.90;;;11.20;;
18084;SDS011;9169;44.492;11.372;2023-05-23T03:07:58;36.63;;;10.70;;
18084;SDS011;9169;44.492;11.372;2023-05-23T03:10:27;39.20;;;11.20;;
18084;SDS011;9169;44.492;11.372;2023-05-23T03:12:55;35.80;;;10.50;;
18084;SDS011;9169;44.492;11.372;2023-05-23T03:15:24;40.37;;;10.67;;
18084;SDS011;9169;44.492;11.372;2023-05-23T03:17:53;40.50;;;10.00;;
18084;SDS011;9169;44.492;11.372;2023-05-23T03:20:21;35.00;;;10.23;;
18084;SDS011;9169;44.492;11.372;2023-05-23T03:22:51;33.47;;;10.40;;
18084;SDS011;9169;44.492;11.372;2023-05-23T03:25:21;40.10;;;11.33;;
18084;SDS011;9169;44.492;11.372;2023-05-23T03:27:50;37.60;;;10.40;;
18084;SDS011;9169;44.492;11.372;2023-05-23T03:30:24;42.87;;;12.23;;
18084;SDS011;9169;44.492;11.372;2023-05-23T03:32:53;37.00;;;11.10;;
18084;SDS011;9169;44.492;11.372;2023-05-23T03:35:22;37.80;;;10.40;;
18084;SDS011;9169;44.492;11.372;2023-05-23T03:37:52;34.17;;;10.27;;
18084;SDS011;9169;44.492;11.372;2023-05-23T03:40:21;35.53;;;10.50;;
18084;SDS011;9169;44.492;11.372;2023-05-23T03:43:00;36.93;;;10.70;;
18084;SDS011;9169;44.492;11.372;2023-05-23T03:45:30;36.60;;;10.70;;
18084;SDS011;9169;44.492;11.372;2023-05-23T03:48:02;37.10;;;11.10;;
18084;SDS011;9169;44.492;11.372;2023-05-23T03:50:31;35.97;;;11.27;;
18084;SDS011;9169;44.492;11.372;2023-05-23T03:53:01;37.67;;;10.20;;
18084;SDS011;9169;44.492;11.372;2023-05-23T03:55:30;36.30;;;11.27;;
18084;SDS011;9169;44.492;11.372;2023-05-23T03:58:00;38.30;;;10.63;;
18084;SDS011;9169;44.492;11.372;2023-05-23T04:00:28;38.47;;;11.10;;
18084;SDS011;9169;44.492;11.372;2023-05-23T04:02:58;34.53;;;10.70;;
18084;SDS011;9169;44.492;11.372;2023-05-23T04:05:28;35.90;;;11.40;;
18084;SDS011;9169;44.492;11.372;2023-05-23T04:07:57;41.00;;;11.10;;
18084;SDS011;9169;44.492;11.372;2023-05-23T04:10:29;40.27;;;10.90;;
18084;SDS011;9169;44.492;11.372;2023-05-23T04:13:13;37.00;;;12.07;;
18084;SDS011;9169;44.492;11.372;2023-05-23T04:15:42;39.90;;;11.20;;
18084;SDS011;9169;44.492;11.372;2023-05-23T04:18:11;38.50;;;11.67;;
18084;SDS011;9169;44.492;11.372;2023-05-23T04:20:41;41.70;;;10.80;;
18084;SDS011;9169;44.492;11.372;2023-05-23T04:23:10;40.63;;;11.07;;
18084;SDS011;9169;44.492;11.372;2023-05-23T04:25:42;36.70;;;10.63;;
18084;SDS011;9169;44.492;11.372;2023-05-23T04:28:17;38.47;;;10.60;;
18084;SDS011;9169;44.492;11.372;2023-05-23T04:30:46;39.70;;;11.00;;
18084;SDS011;9169;44.492;11.372;2023-05-23T04:33:19;36.13;;;11.27;;
18084;SDS011;9169;44.492;11.372;2023-05-23T04:35:48;41.07;;;12.00;;
18084;SDS011;9169;44.492;11.372;2023-05-23T04:38:18;39.23;;;10.83;;
18084;SDS011;9169;44.492;11.372;2023-05-23T04:40:50;39.43;;;9.87;;
18084;SDS011;9169;44.492;11.372;2023-05-23T04:43:37;35.97;;;10.23;;
18084;SDS011;9169;44.492;11.372;2023-05-23T04:46:18;38.50;;;11.40;;
18084;SDS011;9169;44.492;11.372;2023-05-23T04:49:05;34.70;;;10.60;;
18084;SDS011;9169;44.492;11.372;2023-05-23T04:51:34;34.97;;;10.17;;
18084;SDS011;9169;44.492;11.372;2023-05-23T04:54:12;35.00;;;11.23;;
18084;SDS011;9169;44.492;11.372;2023-05-23T04:56:42;34.70;;;10.00;;
18084;SDS011;9169;44.492;11.372;2023-05-23T04:59:10;36.77;;;10.77;;
18084;SDS011;9169;44.492;11.372;2023-05-23T05:01:39;33.97;;;10.20;;
18084;SDS011;9169;44.492;11.372;2023-05-23T05:04:08;38.73;;;11.00;;
18084;SDS011;9169;44.492;11.372;2023-05-23T05:06:39;35.70;;;10.73;;
18084;SDS011;9169;44.492;11.372;2023-05-23T05:09:08;31.37;;;9.70;;
18084;SDS011;9169;44.492;11.372;2023-05-23T05:11:42;35.63;;;10.80;;
18084;SDS011;9169;44.492;11.372;2023-05-23T05:14:12;38.80;;;10.77;;
18084;SDS011;9169;44.492;11.372;2023-05-23T05:16:41;40.83;;;10.90;;
18084;SDS011;9169;44.492;11.372;2023-05-23T05:19:11;34.50;;;9.63;;
18084;SDS011;9169;44.492;11.372;2023-05-23T05:21:43;31.33;;;9.50;;
18084;SDS011;9169;44.492;11.372;2023-05-23T05:24:12;28.50;;;9.63;;
18084;SDS011;9169;44.492;11.372;2023-05-23T05:26:42;28.43;;;8.80;;
18084;SDS011;9169;44.492;11.372;2023-05-23T05:29:11;26.87;;;10.00;;
18084;SDS011;9169;44.492;11.372;2023-05-23T05:31:40;30.60;;;10.00;;
18084;SDS011;9169;44.492;11.372;2023-05-23T05:34:10;36.07;;;11.53;;
18084;SDS011;9169;44.492;11.372;2023-05-23T05:36:39;32.57;;;9.30;;
18084;SDS011;9169;44.492;11.372;2023-05-23T05:39:12;31.30;;;10.50;;
18084;SDS011;9169;44.492;11.372;2023-05-23T05:41:42;29.70;;;9.20;;
18084;SDS011;9169;44.492;11.372;2023-05-23T05:44:12;30.73;;;9.60;;
18084;SDS011;9169;44.492;11.372;2023-05-23T05:46:42;29.23;;;9.60;;
18084;SDS011;9169;44.492;11.372;2023-05-23T05:49:10;29.63;;;9.27;;
18084;SDS011;9169;44.492;11.372;2023-05-23T05:51:40;26.50;;;9.43;;
18084;SDS011;9169;44.492;11.372;2023-05-23T05:54:08;25.30;;;8.87;;
18084;SDS011;9169;44.492;11.372;2023-05-23T05:56:37;26.33;;;9.10;;
18084;SDS011;9169;44.492;11.372;2023-05-23T05:59:07;31.13;;;9.17;;
18084;SDS011;9169;44.492;11.372;2023-05-23T06:01:37;25.73;;;9.40;;
18084;SDS011;9169;44.492;11.372;2023-05-23T06:04:06;25.23;;;9.53;;
18084;SDS011;9169;44.492;11.372;2023-05-23T06:06:35;28.67;;;9.20;;
18084;SDS011;9169;44.492;11.372;2023-05-23T06:09:03;25.00;;;8.83;;
18084;SDS011;9169;44.492;11.372;2023-05-23T06:11:31;29.13;;;9.00;;
18084;SDS011;9169;44.492;11.372;2023-05-23T06:14:01;22.90;;;8.87;;
18084;SDS011;9169;44.492;11.372;2023-05-23T06:16:36;24.00;;;8.83;;
18084;SDS011;9169;44.492;11.372;2023-05-23T06:19:05;24.33;;;8.77;;
18084;SDS011;9169;44.492;11.372;2023-05-23T06:21:34;24.17;;;8.83;;
18084;SDS011;9169;44.492;11.372;2023-05-23T06:24:05;24.77;;;9.30;;
18084;SDS011;9169;44.492;11.372;2023-05-23T06:26:33;34.57;;;9.03;;
18084;SDS011;9169;44.492;11.372;2023-05-23T06:29:03;19.73;;;8.87;;
18084;SDS011;9169;44.492;11.372;2023-05-23T06:31:33;23.90;;;9.07;;
18084;SDS011;9169;44.492;11.372;2023-05-23T06:34:05;22.50;;;8.93;;
18084;SDS011;9169;44.492;11.372;2023-05-23T06:36:34;22.03;;;9.17;;
18084;SDS011;9169;44.492;11.372;2023-05-23T06:39:02;18.60;;;9.23;;
18084;SDS011;9169;44.492;11.372;2023-05-23T06:41:32;20.90;;;9.37;;
18084;SDS011;9169;44.492;11.372;2023-05-23T06:44:00;19.00;;;8.43;;
18084;SDS011;9169;44.492;11.372;2023-05-23T06:46:30;24.10;;;8.60;;
18084;SDS011;9169;44.492;11.372;2023-05-23T06:49:00;21.73;;;8.60;;
18084;SDS011;9169;44.492;11.372;2023-05-23T06:51:40;19.80;;;8.50;;
18084;SDS011;9169;44.492;11.372;2023-05-23T06:54:10;18.30;;;8.30;;
18084;SDS011;9169;44.492;11.372;2023-05-23T06:56:38;21.47;;;9.50;;
18084;SDS011;9169;44.492;11.372;2023-05-23T06:59:06;21.83;;;8.33;;
18084;SDS011;9169;44.492;11.372;2023-05-23T07:01:35;20.10;;;9.07;;
18084;SDS011;9169;44.492;11.372;2023-05-23T07:04:04;17.73;;;8.30;;
18084;SDS011;9169;44.492;11.372;2023-05-23T07:06:33;22.53;;;9.27;;
18084;SDS011;9169;44.492;11.372;2023-05-23T07:09:05;15.70;;;7.80;;
18084;SDS011;9169;44.492;11.372;2023-05-23T07:11:35;24.00;;;8.53;;
18084;SDS011;9169;44.492;11.372;2023-05-23T07:14:05;17.43;;;8.90;;
18084;SDS011;9169;44.492;11.372;2023-05-23T07:16:37;16.53;;;9.00;;
18084;SDS011;9169;44.492;11.372;2023-05-23T07:19:07;18.13;;;9.23;;
18084;SDS011;9169;44.492;11.372;2023-05-23T07:21:45;21.20;;;14.00;;
18084;SDS011;9169;44.492;11.372;2023-05-23T07:24:17;16.07;;;9.13;;
18084;SDS011;9169;44.492;11.372;2023-05-23T07:26:46;17.67;;;8.57;;
18084;SDS011;9169;44.492;11.372;2023-05-23T07:29:14;16.37;;;8.83;;
18084;SDS011;9169;44.492;11.372;2023-05-23T07:31:45;26.63;;;9.30;;
18084;SDS011;9169;44.492;11.372;2023-05-23T07:34:14;14.87;;;8.40;;
18084;SDS011;9169;44.492;11.372;2023-05-23T07:36:57;17.77;;;8.37;;
18084;SDS011;9169;44.492;11.372;2023-05-23T07:39:34;14.80;;;8.10;;
18084;SDS011;9169;44.492;11.372;2023-05-23T07:42:04;18.50;;;8.10;;
18084;SDS011;9169;44.492;11.372;2023-05-23T07:44:32;17.60;;;8.40;;
18084;SDS011;9169;44.492;11.372;2023-05-23T07:47:01;18.57;;;8.10;;
18084;SDS011;9169;44.492;11.372;2023-05-23T07:49:30;18.97;;;8.10;;
18084;SDS011;9169;44.492;11.372;2023-05-23T07:51:59;12.80;;;9.00;;
18084;SDS011;9169;44.492;11.372;2023-05-23T07:54:30;18.83;;;9.67;;
18084;SDS011;9169;44.492;11.372;2023-05-23T07:57:01;17.03;;;9.83;;
18084;SDS011;9169;44.492;11.372;2023-05-23T07:59:30;19.77;;;9.00;;
18084;SDS011;9169;44.492;11.372;2023-05-23T08:01:59;17.80;;;10.23;;
18084;SDS011;9169;44.492;11.372;2023-05-23T08:04:28;16.93;;;10.67;;
18084;SDS011;9169;44.492;11.372;2023-05-23T08:06:57;15.40;;;9.70;;
18084;SDS011;9169;44.492;11.372;2023-05-23T08:09:41;18.93;;;12.13;;
18084;SDS011;9169;44.492;11.372;2023-05-23T08:12:14;16.27;;;9.37;;
18084;SDS011;9169;44.492;11.372;2023-05-23T08:14:44;16.27;;;9.13;;
18084;SDS011;9169;44.492;11.372;2023-05-23T08:17:20;14.10;;;9.67;;
18084;SDS011;9169;44.492;11.372;2023-05-23T08:19:50;13.30;;;9.50;;
18084;SDS011;9169;44.492;11.372;2023-05-23T08:22:18;15.03;;;10.03;;
18084;SDS011;9169;44.492;11.372;2023-05-23T08:24:47;25.37;;;9.50;;
18084;SDS011;9169;44.492;11.372;2023-05-23T08:27:17;13.77;;;9.03;;
18084;SDS011;9169;44.492;11.372;2023-05-23T08:29:49;18.77;;;9.37;;
18084;SDS011;9169;44.492;11.372;2023-05-23T08:32:18;14.87;;;9.63;;
18084;SDS011;9169;44.492;11.372;2023-05-23T08:34:47;15.70;;;8.90;;
18084;SDS011;9169;44.492;11.372;2023-05-23T08:37:16;16.47;;;10.30;;
18084;SDS011;9169;44.492;11.372;2023-05-23T08:39:45;16.10;;;10.00;;
18084;SDS011;9169;44.492;11.372;2023-05-23T08:42:31;15.60;;;9.50;;
18084;SDS011;9169;44.492;11.372;2023-05-23T08:45:00;22.20;;;10.63;;
18084;SDS011;9169;44.492;11.372;2023-05-23T08:47:28;15.87;;;9.70;;
18084;SDS011;9169;44.492;11.372;2023-05-23T08:50:01;16.63;;;9.43;;
18084;SDS011;9169;44.492;11.372;2023-05-23T08:52:33;18.77;;;13.30;;
18084;SDS011;9169;44.492;11.372;2023-05-23T08:55:04;17.43;;;10.50;;
18084;SDS011;9169;44.492;11.372;2023-05-23T08:57:36;22.60;;;10.13;;
18084;SDS011;9169;44.492;11.372;2023-05-23T09:00:25;13.77;;;9.20;;
18084;SDS011;9169;44.492;11.372;2023-05-23T09:02:55;15.50;;;11.17;;
18084;SDS011;9169;44.492;11.372;2023-05-23T09:05:40;17.83;;;9.70;;
18084;SDS011;9169;44.492;11.372;2023-05-23T09:08:09;16.80;;;11.37;;
18084;SDS011;9169;44.492;11.372;2023-05-23T09:10:38;25.40;;;11.10;;
18084;SDS011;9169;44.492;11.372;2023-05-23T09:13:10;15.50;;;10.73;;
18084;SDS011;9169;44.492;11.372;2023-05-23T09:15:54;16.47;;;10.37;;
18084;SDS011;9169;44.492;11.372;2023-05-23T09:18:31;15.57;;;9.57;;
18084;SDS011;9169;44.492;11.372;2023-05-23T09:21:02;14.37;;;8.90;;
18084;SDS011;9169;44.492;11.372;2023-05-23T09:23:33;15.90;;;10.47;;
18084;SDS011;9169;44.492;11.372;2023-05-23T09:26:02;11.97;;;9.07;;
18084;SDS011;9169;44.492;11.372;2023-05-23T09:28:33;11.40;;;8.70;;
18084;SDS011;9169;44.492;11.372;2023-05-23T09:31:04;10.83;;;8.43;;
18084;SDS011;9169;44.492;11.372;2023-05-23T09:33:34;15.90;;;8.00;;
18084;SDS011;9169;44.492;11.372;2023-05-23T09:36:05;11.97;;;8.47;;
18084;SDS011;9169;44.492;11.372;2023-05-23T09:38:36;14.27;;;8.50;;
18084;SDS011;9169;44.492;11.372;2023-05-23T09:41:06;12.77;;;8.40;;
18084;SDS011;9169;44.492;11.372;2023-05-23T09:43:39;10.50;;;7.40;;
18084;SDS011;9169;44.492;11.372;2023-05-23T09:46:17;12.93;;;7.20;;
18084;SDS011;9169;44.492;11.372;2023-05-23T09:48:46;10.03;;;7.70;;
18084;SDS011;9169;44.492;11.372;2023-05-23T09:51:17;17.80;;;6.90;;
18084;SDS011;9169;44.492;11.372;2023-05-23T09:53:47;12.10;;;7.60;;
18084;SDS011;9169;44.492;11.372;2023-05-23T09:56:17;9.90;;;6.73;;
18084;SDS011;9169;44.492;11.372;2023-05-23T09:58:48;12.40;;;7.20;;
18084;SDS011;9169;44.492;11.372;2023-05-23T10:01:17;9.93;;;7.17;;
18084;SDS011;9169;44.492;11.372;2023-05-23T10:03:49;12.10;;;6.50;;
18084;SDS011;9169;44.492;11.372;2023-05-23T10:06:22;12.47;;;7.40;;
18084;SDS011;9169;44.492;11.372;2023-05-23T10:08:54;10.53;;;6.50;;
18084;SDS011;9169;44.492;11.372;2023-05-23T10:11:53;8.30;;;6.33;;
18084;SDS011;9169;44.492;11.372;2023-05-23T10:14:50;12.17;;;7.10;;
18084;SDS011;9169;44.492;11.372;2023-05-23T10:17:25;10.20;;;6.43;;
18084;SDS011;9169;44.492;11.372;2023-05-23T10:20:00;11.67;;;6.53;;
18084;SDS011;9169;44.492;11.372;2023-05-23T10:22:34;6.97;;;6.00;;
18084;SDS011;9169;44.492;11.372;2023-05-23T10:25:04;10.40;;;7.47;;
18084;SDS011;9169;44.492;11.372;2023-05-23T10:27:33;7.70;;;5.97;;
18084;SDS011;9169;44.492;11.372;2023-05-23T10:30:05;11.47;;;5.83;;
18084;SDS011;9169;44.492;11.372;2023-05-23T10:32:34;10.43;;;6.00;;
18084;SDS011;9169;44.492;11.372;2023-05-23T10:35:07;10.43;;;5.77;;
18084;SDS011;9169;44.492;11.372;2023-05-23T10:37:44;8.87;;;6.20;;
18084;SDS011;9169;44.492;11.372;2023-05-23T10:40:20;10.90;;;6.10;;
18084;SDS011;9169;44.492;11.372;2023-05-23T10:43:00;10.80;;;5.77;;
18084;SDS011;9169;44.492;11.372;2023-05-23T10:45:38;11.23;;;6.37;;
18084;SDS011;9169;44.492;11.372;2023-05-23T10:48:16;8.87;;;5.70;;
18084;SDS011;9169;44.492;11.372;2023-05-23T10:51:01;7.70;;;5.57;;
18084;SDS011;9169;44.492;11.372;2023-05-23T10:53:31;11.30;;;5.77;;
18084;SDS011;9169;44.492;11.372;2023-05-23T10:56:04;8.73;;;5.90;;
18084;SDS011;9169;44.492;11.372;2023-05-23T10:58:34;8.60;;;6.40;;
18084;SDS011;9169;44.492;11.372;2023-05-23T11:01:07;9.33;;;6.90;;
18084;SDS011;9169;44.492;11.372;2023-05-23T11:03:47;11.87;;;6.50;;
18084;SDS011;9169;44.492;11.372;2023-05-23T11:06:28;12.90;;;6.97;;
18084;SDS011;9169;44.492;11.372;2023-05-23T11:09:00;9.83;;;6.43;;
18084;SDS011;9169;44.492;11.372;2023-05-23T11:11:51;12.33;;;6.00;;
18084;SDS011;9169;44.492;11.372;2023-05-23T11:14:30;8.73;;;6.70;;
18084;SDS011;9169;44.492;11.372;2023-05-23T11:17:28;10.27;;;5.97;;
18084;SDS011;9169;44.492;11.372;2023-05-23T11:19:58;7.87;;;5.50;;
18084;SDS011;9169;44.492;11.372;2023-05-23T11:22:32;13.47;;;6.13;;
18084;SDS011;9169;44.492;11.372;2023-05-23T11:25:05;12.07;;;6.60;;
18084;SDS011;9169;44.492;11.372;2023-05-23T11:27:34;8.13;;;5.90;;
18084;SDS011;9169;44.492;11.372;2023-05-23T11:30:05;8.40;;;6.00;;
18084;SDS011;9169;44.492;11.372;2023-05-23T11:32:37;11.17;;;6.83;;
18084;SDS011;9169;44.492;11.372;2023-05-23T11:35:06;16.13;;;6.53;;
18084;SDS011;9169;44.492;11.372;2023-05-23T11:37:36;10.03;;;7.10;;
18084;SDS011;9169;44.492;11.372;2023-05-23T11:40:25;7.47;;;5.93;;
18084;SDS011;9169;44.492;11.372;2023-05-23T11:42:56;11.00;;;7.03;;
18084;SDS011;9169;44.492;11.372;2023-05-23T11:45:27;8.57;;;5.87;;
18084;SDS011;9169;44.492;11.372;2023-05-23T11:48:01;9.53;;;6.17;;
18084;SDS011;9169;44.492;11.372;2023-05-23T11:50:32;9.10;;;6.07;;
18084;SDS011;9169;44.492;11.372;2023-05-23T11:53:01;9.47;;;6.43;;
18084;SDS011;9169;44.492;11.372;2023-05-23T11:55:30;8.40;;;6.80;;
18084;SDS011;9169;44.492;11.372;2023-05-23T11:57:59;11.00;;;7.20;;
18084;SDS011;9169;44.492;11.372;2023-05-23T12:00:27;8.63;;;6.70;;
18084;SDS011;9169;44.492;11.372;2023-05-23T12:02:58;9.93;;;6.60;;
18084;SDS011;9169;44.492;11.372;2023-05-23T12:05:34;22.30;;;10.20;;
18084;SDS011;9169;44.492;11.372;2023-05-23T12:08:02;8.63;;;6.20;;
18084;SDS011;9169;44.492;11.372;2023-05-23T12:10:31;11.63;;;6.50;;
18084;SDS011;9169;44.492;11.372;2023-05-23T12:12:59;11.10;;;6.53;;
18084;SDS011;9169;44.492;11.372;2023-05-23T12:15:28;10.57;;;6.83;;
18084;SDS011;9169;44.492;11.372;2023-05-23T12:17:58;8.87;;;6.70;;
18084;SDS011;9169;44.492;11.372;2023-05-23T12:20:27;11.60;;;6.13;;
18084;SDS011;9169;44.492;11.372;2023-05-23T12:23:02;16.43;;;7.97;;
18084;SDS011;9169;44.492;11.372;2023-05-23T12:25:36;10.87;;;6.70;;
18084;SDS011;9169;44.492;11.372;2023-05-23T12:28:06;11.20;;;6.90;;
18084;SDS011;9169;44.492;11.372;2023-05-23T12:30:39;9.67;;;6.60;;
18084;SDS011;9169;44.492;11.372;2023-05-23T12:33:10;9.53;;;6.10;;
18084;SDS011;9169;44.492;11.372;2023-05-23T12:35:41;11.63;;;6.57;;
18084;SDS011;9169;44.492;11.372;2023-05-23T12:38:13;13.47;;;6.27;;
18084;SDS011;9169;44.492;11.372;2023-05-23T12:40:43;12.27;;;6.13;;
18084;SDS011;9169;44.492;11.372;2023-05-23T12:43:14;7.50;;;5.83;;
18084;SDS011;9169;44.492;11.372;2023-05-23T12:45:42;10.73;;;6.13;;
18084;SDS011;9169;44.492;11.372;2023-05-23T12:48:12;8.63;;;4.87;;
18084;SDS011;9169;44.492;11.372;2023-05-23T12:50:40;10.33;;;4.40;;
18084;SDS011;9169;44.492;11.372;2023-05-23T12:53:09;9.80;;;5.10;;
18084;SDS011;9169;44.492;11.372;2023-05-23T12:55:37;8.97;;;5.50;;
18084;SDS011;9169;44.492;11.372;2023-05-23T12:58:06;12.97;;;11.50;;
18084;SDS011;9169;44.492;11.372;2023-05-23T13:00:34;7.57;;;5.20;;
18084;SDS011;9169;44.492;11.372;2023-05-23T13:03:03;7.33;;;5.40;;
18084;SDS011;9169;44.492;11.372;2023-05-23T13:05:33;11.63;;;5.20;;
18084;SDS011;9169;44.492;11.372;2023-05-23T13:08:02;9.13;;;5.97;;
18084;SDS011;9169;44.492;11.372;2023-05-23T13:10:30;9.00;;;5.10;;
18084;SDS011;9169;44.492;11.372;2023-05-23T13:12:59;9.70;;;5.40;;
18084;SDS011;9169;44.492;11.372;2023-05-23T13:15:28;10.27;;;5.37;;
18084;SDS011;9169;44.492;11.372;2023-05-23T13:17:56;11.90;;;4.97;;
18084;SDS011;9169;44.492;11.372;2023-05-23T13:20:24;7.90;;;5.10;;
18084;SDS011;9169;44.492;11.372;2023-05-23T13:22:57;7.30;;;5.18;;
18084;SDS011;9169;44.492;11.372;2023-05-23T13:25:26;12.32;;;5.05;;
18084;SDS011;9169;44.492;11.372;2023-05-23T13:27:55;6.68;;;5.35;;
18084;SDS011;9169;44.492;11.372;2023-05-23T13:30:23;6.95;;;5.40;;
18084;SDS011;9169;44.492;11.372;2023-05-23T13:32:52;7.18;;;4.90;;
18084;SDS011;9169;44.492;11.372;2023-05-23T13:35:20;7.43;;;5.75;;
18084;SDS011;9169;44.492;11.372;2023-05-23T13:37:49;9.77;;;6.20;;
18084;SDS011;9169;44.492;11.372;2023-05-23T13:40:19;11.32;;;5.80;;
18084;SDS011;9169;44.492;11.372;2023-05-23T13:42:49;12.73;;;6.20;;
18084;SDS011;9169;44.492;11.372;2023-05-23T13:45:18;9.68;;;5.57;;
18084;SDS011;9169;44.492;11.372;2023-05-23T13:47:48;7.47;;;5.53;;
18084;SDS011;9169;44.492;11.372;2023-05-23T13:50:16;6.28;;;5.10;;
18084;SDS011;9169;44.492;11.372;2023-05-23T13:52:45;9.13;;;5.43;;
18084;SDS011;9169;44.492;11.372;2023-05-23T13:55:14;6.45;;;5.03;;
18084;SDS011;9169;44.492;11.372;2023-05-23T13:57:45;8.10;;;5.25;;
18084;SDS011;9169;44.492;11.372;2023-05-23T14:00:14;9.35;;;5.35;;
18084;SDS011;9169;44.492;11.372;2023-05-23T14:02:43;11.45;;;5.43;;
18084;SDS011;9169;44.492;11.372;2023-05-23T14:05:11;8.48;;;5.60;;
18084;SDS011;9169;44.492;11.372;2023-05-23T14:07:41;11.02;;;6.13;;
18084;SDS011;9169;44.492;11.372;2023-05-23T14:10:12;6.45;;;4.60;;
18084;SDS011;9169;44.492;11.372;2023-05-23T14:12:42;11.07;;;5.40;;
18084;SDS011;9169;44.492;11.372;2023-05-23T14:15:11;8.18;;;5.18;;
18084;SDS011;9169;44.492;11.372;2023-05-23T14:17:40;9.52;;;5.60;;
18084;SDS011;9169;44.492;11.372;2023-05-23T14:20:09;8.05;;;4.80;;
18084;SDS011;9169;44.492;11.372;2023-05-23T14:22:38;8.75;;;5.13;;
18084;SDS011;9169;44.492;11.372;2023-05-23T14:25:08;10.63;;;5.13;;
18084;SDS011;9169;44.492;11.372;2023-05-23T14:27:36;7.28;;;4.88;;
18084;SDS011;9169;44.492;11.372;2023-05-23T14:30:06;15.55;;;5.15;;
18084;SDS011;9169;44.492;11.372;2023-05-23T14:32:36;7.18;;;4.60;;
18084;SDS011;9169;44.492;11.372;2023-05-23T14:35:06;7.75;;;5.53;;
18084;SDS011;9169;44.492;11.372;2023-05-23T14:37:36;8.10;;;5.43;;
18084;SDS011;9169;44.492;11.372;2023-05-23T14:40:05;7.75;;;4.70;;
18084;SDS011;9169;44.492;11.372;2023-05-23T14:42:35;15.40;;;5.10;;
18084;SDS011;9169;44.492;11.372;2023-05-23T14:45:06;8.10;;;5.10;;
18084;SDS011;9169;44.492;11.372;2023-05-23T14:47:36;10.50;;;4.63;;
18084;SDS011;9169;44.492;11.372;2023-05-23T14:50:06;7.90;;;4.87;;
18084;SDS011;9169;44.492;11.372;2023-05-23T14:52:35;10.73;;;7.50;;
18084;SDS011;9169;44.492;11.372;2023-05-23T14:55:04;6.70;;;5.70;;
18084;SDS011;9169;44.492;11.372;2023-05-23T14:57:33;11.63;;;4.90;;